createdAt,value
2018-09-24T00:00:59.877Z,96921.37
2018-09-24T00:03:27.573Z,96946.59
2018-09-24T00:05:55.901Z,96940.55
2018-09-24T00:08:23.699Z,96936.78
2018-09-24T00:10:51.641Z,96961.58
2018-09-24T00:13:18.790Z,96976.05
2018-09-24T00:15:45.761Z,96967.04
2018-09-24T00:18:14.929Z,96962.30
2018-09-24T00:20:42.793Z,96982.36
2018-09-24T00:23:11.986Z,96988.91
2018-09-24T00:25:40.293Z,96984.13
2018-09-24T00:28:08.105Z,96997.00
2018-09-24T00:30:36.023Z,96998.20
2018-09-24T00:33:02.529Z,96970.27
2018-09-24T00:35:29.051Z,96995.34
2018-09-24T00:37:55.614Z,97019.16
2018-09-24T00:40:22.127Z,97005.06
2018-09-24T00:42:48.619Z,97000.92
2018-09-24T00:45:15.209Z,96991.95
2018-09-24T00:47:41.967Z,97000.23
2018-09-24T00:50:08.529Z,97012.59
2018-09-24T00:52:35.143Z,97016.06
2018-09-24T00:55:01.837Z,97006.05
2018-09-24T00:57:28.358Z,96998.77
2018-09-24T00:59:54.855Z,97023.45
2018-09-24T01:02:21.530Z,97029.45
2018-09-24T01:04:48.016Z,97029.18
2018-09-24T01:07:14.715Z,97010.48
2018-09-24T01:09:41.440Z,96987.49
2018-09-24T01:12:08.190Z,96989.06
2018-09-24T01:14:34.832Z,96977.84
2018-09-24T01:17:01.436Z,97013.94
2018-09-24T01:19:28.005Z,97057.11
2018-09-24T01:21:54.606Z,97059.42
2018-09-24T01:24:21.228Z,97058.49
2018-09-24T01:26:47.742Z,97048.92
2018-09-24T01:29:14.374Z,97044.48
2018-09-24T01:31:41.425Z,97022.92
2018-09-24T01:34:08.130Z,97011.09
2018-09-24T01:36:35.338Z,96982.75
2018-09-24T01:39:03.710Z,96994.95
2018-09-24T01:41:30.926Z,97031.91
2018-09-24T01:43:57.408Z,97054.22
2018-09-24T01:46:24.097Z,97059.09
2018-09-24T01:48:50.830Z,97064.77
2018-09-24T01:51:18.551Z,97058.18
2018-09-24T01:53:45.803Z,97063.34
2018-09-24T01:56:12.816Z,97044.72
2018-09-24T01:58:40.241Z,97031.05
2018-09-24T02:01:06.963Z,97014.64
2018-09-24T02:03:33.504Z,97012.72
2018-09-24T02:06:00.088Z,97021.17
2018-09-24T02:08:26.619Z,97050.08
2018-09-24T02:10:53.228Z,97081.86
2018-09-24T02:13:20.231Z,97071.75
2018-09-24T02:15:46.891Z,97056.38
2018-09-24T02:18:13.554Z,97065.30
2018-09-24T02:20:41.555Z,97064.48
2018-09-24T02:23:08.742Z,97045.55
2018-09-24T02:25:36.345Z,97037.16
2018-09-24T02:28:04.103Z,97031.80
2018-09-24T02:30:30.862Z,97011.94
2018-09-24T02:32:57.541Z,97009.08
2018-09-24T02:35:24.774Z,97010.66
2018-09-24T02:37:53.163Z,97036.81
2018-09-24T02:40:22.244Z,97036.83
2018-09-24T02:42:48.932Z,97074.97
2018-09-24T02:45:17.519Z,97077.15
2018-09-24T02:47:44.896Z,97102.30
2018-09-24T02:50:12.439Z,97104.53
2018-09-24T02:52:39.074Z,97100.87
2018-09-24T02:55:05.782Z,97124.20
2018-09-24T02:57:33.093Z,97128.89
2018-09-24T02:59:59.712Z,97110.43
2018-09-24T03:02:26.998Z,97118.58
2018-09-24T03:04:53.472Z,97128.61
2018-09-24T03:07:20.120Z,97146.65
2018-09-24T03:09:46.605Z,97133.77
2018-09-24T03:12:13.757Z,97113.43
2018-09-24T03:14:40.647Z,97116.30
2018-09-24T03:17:08.091Z,97096.36
2018-09-24T03:19:35.858Z,97094.12
2018-09-24T03:22:03.240Z,97103.80
2018-09-24T03:24:29.757Z,97130.16
2018-09-24T03:26:56.296Z,97149.66
2018-09-24T03:29:22.830Z,97138.24
2018-09-24T03:31:49.421Z,97191.25
2018-09-24T03:34:15.980Z,97247.50
2018-09-24T03:36:42.607Z,97271.66
2018-09-24T03:39:09.242Z,97280.94
2018-09-24T03:41:35.739Z,97276.44
2018-09-24T03:44:02.911Z,97264.77
2018-09-24T03:46:29.637Z,97287.98
2018-09-24T03:48:56.286Z,97313.34
2018-09-24T03:51:23.109Z,97330.63
2018-09-24T03:53:49.795Z,97333.42
2018-09-24T03:56:16.334Z,97332.81
2018-09-24T03:58:42.888Z,97352.81
2018-09-24T04:01:09.510Z,97368.85
2018-09-24T04:03:36.093Z,97363.13
2018-09-24T04:06:03.691Z,97358.05
2018-09-24T04:08:30.280Z,97365.23
2018-09-24T04:10:56.989Z,97375.34
2018-09-24T04:13:23.644Z,97381.40
2018-09-24T04:15:50.226Z,97400.13
2018-09-24T04:18:16.786Z,97406.97
2018-09-24T04:20:43.518Z,97422.03
2018-09-24T04:23:10.033Z,97438.67
2018-09-24T04:25:36.833Z,97422.16
2018-09-24T04:28:03.364Z,97424.09
2018-09-24T04:30:29.917Z,97424.66
2018-09-24T04:32:56.440Z,97435.42
2018-09-24T04:35:23.053Z,97435.89
2018-09-24T04:37:49.598Z,97438.77
2018-09-24T04:40:16.152Z,97431.75
2018-09-24T04:42:42.700Z,97423.04
2018-09-24T04:45:09.196Z,97439.59
2018-09-24T04:47:35.755Z,97457.83
2018-09-24T04:50:02.388Z,97470.26
2018-09-24T04:52:28.880Z,97476.38
2018-09-24T04:54:55.393Z,97488.64
2018-09-24T04:57:22.036Z,97483.95
2018-09-24T04:59:48.554Z,97492.06
2018-09-24T05:02:16.215Z,97499.61
2018-09-24T05:04:42.889Z,97507.85
2018-09-24T05:07:09.473Z,97498.91
2018-09-24T05:09:36.075Z,97509.41
2018-09-24T05:12:04.863Z,97510.20
2018-09-24T05:14:32.203Z,97509.68
2018-09-24T05:16:58.908Z,97508.83
2018-09-24T05:19:26.000Z,97512.88
2018-09-24T05:21:52.492Z,97530.13
2018-09-24T05:24:19.022Z,97531.59
2018-09-24T05:26:46.930Z,97541.19
2018-09-24T05:29:14.464Z,97563.31
2018-09-24T05:31:41.123Z,97567.45
2018-09-24T05:34:07.662Z,97575.48
2018-09-24T05:36:35.190Z,97580.79
2018-09-24T05:39:01.874Z,97586.27
2018-09-24T05:41:28.443Z,97594.28
2018-09-24T05:43:54.924Z,97589.49
2018-09-24T05:46:21.535Z,97581.69
2018-09-24T05:48:51.845Z,97588.70
2018-09-24T05:51:18.431Z,97604.11
2018-09-24T05:53:44.903Z,97626.62
2018-09-24T05:56:14.542Z,97620.02
2018-09-24T05:58:41.561Z,97631.67
2018-09-24T06:01:08.276Z,97650.59
2018-09-24T06:03:34.820Z,97664.40
2018-09-24T06:06:01.326Z,97675.05
2018-09-24T06:08:27.861Z,97680.27
2018-09-24T06:10:54.362Z,97696.12
2018-09-24T06:13:20.899Z,97721.62
2018-09-24T06:15:48.099Z,97727.38
2018-09-24T06:18:14.678Z,97739.23
2018-09-24T06:20:41.381Z,97743.28
2018-09-24T06:23:07.919Z,97750.55
2018-09-24T06:25:34.474Z,97747.59
2018-09-24T06:28:01.031Z,97769.91
2018-09-24T06:30:27.538Z,97777.69
2018-09-24T06:32:54.175Z,97797.62
2018-09-24T06:35:20.668Z,97799.62
2018-09-24T06:37:47.224Z,97816.19
2018-09-24T06:40:13.837Z,97825.02
2018-09-24T06:42:40.356Z,97829.39
2018-09-24T06:45:06.851Z,97833.67
2018-09-24T06:47:33.425Z,97839.73
2018-09-24T06:50:00.603Z,97836.98
2018-09-24T06:52:27.203Z,97848.15
2018-09-24T06:54:54.996Z,97846.69
2018-09-24T06:57:21.540Z,97864.50
2018-09-24T06:59:49.133Z,97864.71
2018-09-24T07:04:47.634Z,97875.51
2018-09-24T07:07:14.208Z,97874.38
2018-09-24T07:09:40.750Z,97882.45
2018-09-24T07:12:11.130Z,97888.45
2018-09-24T07:14:37.621Z,97906.25
2018-09-24T07:17:04.662Z,97917.13
2018-09-24T07:19:31.203Z,97929.06
2018-09-24T07:21:57.673Z,97936.86
2018-09-24T07:24:24.165Z,97944.77
2018-09-24T07:26:50.696Z,97950.89
2018-09-24T07:29:17.155Z,97949.64
2018-09-24T07:31:43.648Z,97966.61
2018-09-24T07:34:11.173Z,97980.17
2018-09-24T07:36:37.656Z,97999.66
2018-09-24T07:39:04.243Z,98018.82
2018-09-24T07:41:30.812Z,98026.33
2018-09-24T07:43:57.298Z,98039.52
2018-09-24T07:46:23.889Z,98046.94
2018-09-24T07:48:50.448Z,98052.48
2018-09-24T07:51:17.005Z,98069.44
2018-09-24T07:53:43.515Z,98074.73
2018-09-24T07:56:10.161Z,98080.22
2018-09-24T07:58:36.708Z,98099.72
2018-09-24T08:01:03.503Z,98096.52
2018-09-24T08:03:30.188Z,98130.41
2018-09-24T08:05:56.680Z,98114.64
2018-09-24T08:08:23.268Z,98146.75
2018-09-24T08:10:51.109Z,98145.03
2018-09-24T08:13:17.632Z,98144.17
2018-09-24T08:15:44.471Z,98141.53
2018-09-24T08:18:11.083Z,98152.18
2018-09-24T08:20:38.071Z,98156.25
2018-09-24T08:23:04.957Z,98171.23
2018-09-24T08:25:31.562Z,98166.63
2018-09-24T08:27:58.243Z,98171.20
2018-09-24T08:30:24.890Z,98168.34
2018-09-24T08:32:51.575Z,98176.23
2018-09-24T08:35:18.565Z,98178.45
2018-09-24T08:37:45.312Z,98180.78
2018-09-24T08:40:15.047Z,98187.91
2018-09-24T08:42:41.631Z,98193.48
2018-09-24T08:45:08.144Z,98202.08
2018-09-24T08:47:36.199Z,98208.03
2018-09-24T08:50:02.715Z,98205.49
2018-09-24T08:52:29.217Z,98222.96
2018-09-24T08:54:55.765Z,98224.48
2018-09-24T08:57:22.341Z,98220.02
2018-09-24T08:59:49.037Z,98224.99
2018-09-24T09:02:15.511Z,98230.36
2018-09-24T09:04:42.001Z,98248.13
2018-09-24T09:07:08.543Z,98249.66
2018-09-24T09:12:07.444Z,98257.02
2018-09-24T09:14:34.109Z,98267.64
2018-09-24T09:17:00.595Z,98271.08
2018-09-24T09:19:28.175Z,98286.30
2018-09-24T09:21:54.657Z,98281.62
2018-09-24T09:24:21.123Z,98293.50
2018-09-24T09:26:47.612Z,98306.02
2018-09-24T09:29:14.225Z,98318.28
2018-09-24T09:31:41.049Z,98326.08
2018-09-24T09:34:07.580Z,98329.02
2018-09-24T09:36:34.550Z,98314.97
2018-09-24T09:39:01.129Z,98342.09
2018-09-24T09:41:28.396Z,98338.44
2018-09-24T09:43:54.956Z,98325.72
2018-09-24T09:46:21.433Z,98339.66
2018-09-24T09:48:47.981Z,98323.93
2018-09-24T09:51:14.440Z,98336.64
2018-09-24T09:53:40.983Z,98337.73
2018-09-24T09:56:07.687Z,98343.14
2018-09-24T09:58:34.146Z,98348.33
2018-09-24T10:01:00.584Z,98340.20
2018-09-24T10:05:59.000Z,98358.77
2018-09-24T10:08:25.637Z,98360.84
2018-09-24T10:10:52.138Z,98368.13
2018-09-24T10:13:18.765Z,98369.54
2018-09-24T10:15:45.241Z,98366.63
2018-09-24T10:18:11.805Z,98376.12
2018-09-24T10:20:38.346Z,98384.34
2018-09-24T10:23:04.917Z,98381.98
2018-09-24T10:25:31.449Z,98387.13
2018-09-24T10:27:58.001Z,98382.24
2018-09-24T10:30:24.490Z,98386.52
2018-09-24T10:32:50.981Z,98381.27
2018-09-24T10:35:17.488Z,98379.77
2018-09-24T10:37:44.041Z,98387.90
2018-09-24T10:40:10.610Z,98372.19
2018-09-24T10:42:38.118Z,98397.02
2018-09-24T10:45:04.700Z,98396.60
2018-09-24T10:47:31.222Z,98382.44
2018-09-24T10:49:57.712Z,98387.31
2018-09-24T10:52:24.234Z,98380.55
2018-09-24T10:54:50.793Z,98387.53
2018-09-24T10:57:17.283Z,98386.53
2018-09-24T10:59:43.841Z,98385.30
2018-09-24T11:02:10.357Z,98396.77
2018-09-24T11:04:36.969Z,98408.47
2018-09-24T11:07:03.823Z,98407.60
2018-09-24T11:09:30.361Z,98405.06
2018-09-24T11:11:56.862Z,98400.27
2018-09-24T11:14:23.407Z,98403.19
2018-09-24T11:16:50.113Z,98397.50
2018-09-24T11:19:16.899Z,98400.41
2018-09-24T11:21:43.403Z,98407.45
2018-09-24T11:24:09.919Z,98409.45
2018-09-24T11:26:36.481Z,98403.75
2018-09-24T11:29:03.151Z,98403.23
2018-09-24T11:31:29.706Z,98416.66
2018-09-24T11:33:56.281Z,98423.21
2018-09-24T11:36:22.741Z,98420.26
2018-09-24T11:38:49.215Z,98426.42
2018-09-24T11:41:15.709Z,98433.36
2018-09-24T11:43:42.234Z,98445.64
2018-09-24T11:46:09.062Z,98441.80
2018-09-24T11:53:38.898Z,98431.02
2018-09-24T11:56:05.420Z,98423.65
2018-09-24T11:58:31.965Z,98432.38
2018-09-24T12:00:58.459Z,98418.52
2018-09-24T12:03:24.927Z,98429.84
2018-09-24T12:05:51.407Z,98432.25
2018-09-24T12:08:17.955Z,98420.82
2018-09-24T12:10:45.038Z,98410.55
2018-09-24T12:13:11.783Z,98416.40
2018-09-24T12:15:38.271Z,98431.65
2018-09-24T12:18:04.793Z,98431.73
2018-09-24T12:20:31.483Z,98425.28
2018-09-24T12:22:57.995Z,98424.16
2018-09-24T12:25:24.522Z,98433.44
2018-09-24T12:27:50.997Z,98447.38
2018-09-24T12:30:18.514Z,98443.06
2018-09-24T12:32:45.019Z,98459.85
2018-09-24T12:35:11.544Z,98457.78
2018-09-24T12:37:38.056Z,98469.64
2018-09-24T12:40:04.668Z,98478.18
2018-09-24T12:42:31.613Z,98479.95
2018-09-24T12:44:58.082Z,98480.19
2018-09-24T12:47:24.776Z,98470.25
2018-09-24T12:49:51.367Z,98475.02
2018-09-24T12:52:17.853Z,98477.33
2018-09-24T12:54:45.038Z,98480.33
2018-09-24T12:57:11.505Z,98484.30
2018-09-24T12:59:38.025Z,98488.87
2018-09-24T13:02:04.495Z,98486.67
2018-09-24T13:04:30.956Z,98476.80
2018-09-24T13:06:57.494Z,98455.33
2018-09-24T13:09:24.002Z,98462.58
2018-09-24T13:11:50.512Z,98472.14
2018-09-24T13:14:17.122Z,98457.05
2018-09-24T13:16:43.569Z,98457.98
2018-09-24T13:19:10.583Z,98458.36
2018-09-24T13:21:37.146Z,98450.44
2018-09-24T13:24:04.398Z,98452.20
2018-09-24T13:26:30.886Z,98450.88
2018-09-24T13:28:57.356Z,98454.49
2018-09-24T13:31:23.833Z,98446.42
2018-09-24T13:33:50.314Z,98451.62
2018-09-24T13:36:16.871Z,98451.34
2018-09-24T13:38:43.491Z,98447.36
2018-09-24T13:41:10.054Z,98458.47
2018-09-24T13:43:36.585Z,98453.70
2018-09-24T13:46:03.229Z,98455.33
2018-09-24T13:48:29.729Z,98459.13
2018-09-24T13:50:56.260Z,98467.61
2018-09-24T13:53:22.753Z,98468.17
2018-09-24T13:55:49.924Z,98458.86
2018-09-24T13:58:16.446Z,98458.10
2018-09-24T14:00:42.955Z,98456.83
2018-09-24T14:03:09.551Z,98449.15
2018-09-24T14:05:36.058Z,98444.35
2018-09-24T14:08:02.571Z,98452.03
2018-09-24T14:10:29.056Z,98446.73
2018-09-24T14:12:55.597Z,98444.56
2018-09-24T14:15:22.200Z,98446.94
2018-09-24T14:17:48.668Z,98441.11
2018-09-24T14:22:47.365Z,98429.44
2018-09-24T14:25:13.848Z,98430.53
2018-09-24T14:27:40.361Z,98433.35
2018-09-24T14:30:06.899Z,98429.67
2018-09-24T14:32:33.413Z,98431.81
2018-09-24T14:34:59.977Z,98428.80
2018-09-24T14:37:26.532Z,98428.56
2018-09-24T14:39:53.065Z,98427.77
2018-09-24T14:42:20.441Z,98435.26
2018-09-24T14:44:50.766Z,98445.67
2018-09-24T14:47:17.317Z,98446.84
2018-09-24T14:49:43.875Z,98433.88
2018-09-24T14:54:42.537Z,98442.80
2018-09-24T14:57:09.203Z,98441.93
2018-09-24T14:59:36.493Z,98440.76
2018-09-24T15:04:34.558Z,98448.72
2018-09-24T15:07:01.493Z,98444.83
2018-09-24T15:09:28.015Z,98452.10
2018-09-24T15:11:56.833Z,98452.48
2018-09-24T15:14:23.327Z,98451.45
2018-09-24T15:16:49.807Z,98458.41
2018-09-24T15:19:16.339Z,98468.12
2018-09-24T15:21:42.880Z,98462.37
2018-09-24T15:24:09.390Z,98463.09
2018-09-24T15:26:35.871Z,98473.75
2018-09-24T15:29:02.438Z,98467.40
2018-09-24T15:31:28.945Z,98475.53
2018-09-24T15:33:55.929Z,98477.16
2018-09-24T15:36:22.476Z,98489.10
2018-09-24T15:38:49.139Z,98481.95
2018-09-24T15:41:16.155Z,98481.66
2018-09-24T15:43:42.653Z,98475.79
2018-09-24T15:46:09.392Z,98477.95
2018-09-24T15:48:36.074Z,98478.70
2018-09-24T15:51:02.767Z,98487.38
2018-09-24T15:53:29.251Z,98489.84
2018-09-24T15:55:56.065Z,98483.41
2018-09-24T15:58:22.597Z,98481.84
2018-09-24T16:00:49.112Z,98488.22
2018-09-24T16:03:15.710Z,98495.88
2018-09-24T16:05:42.295Z,98493.72
2018-09-24T16:08:08.840Z,98499.98
2018-09-24T16:10:35.390Z,98491.37
2018-09-24T16:13:01.861Z,98486.88
2018-09-24T16:15:28.373Z,98497.66
2018-09-24T16:17:55.000Z,98498.98
2018-09-24T16:20:21.482Z,98500.16
2018-09-24T16:22:48.292Z,98503.37
2018-09-24T16:25:15.890Z,98494.60
2018-09-24T16:27:42.396Z,98503.72
2018-09-24T16:30:08.890Z,98506.50
2018-09-24T16:32:35.420Z,98507.83
2018-09-24T16:35:02.116Z,98512.72
2018-09-24T16:37:28.626Z,98512.94
2018-09-24T16:39:55.342Z,98514.31
2018-09-24T16:42:22.342Z,98515.55
2018-09-24T16:44:48.801Z,98521.67
2018-09-24T16:47:16.084Z,98518.38
2018-09-24T16:49:42.604Z,98520.89
2018-09-24T16:52:09.347Z,98518.33
2018-09-24T16:54:35.857Z,98516.32
2018-09-24T16:57:02.914Z,98522.20
2018-09-24T16:59:30.078Z,98522.28
2018-09-24T17:01:56.580Z,98529.85
2018-09-24T17:04:23.109Z,98545.81
2018-09-24T17:06:50.269Z,98547.69
2018-09-24T17:09:17.924Z,98555.64
2018-09-24T17:11:44.390Z,98565.00
2018-09-24T17:14:11.027Z,98559.91
2018-09-24T17:16:37.555Z,98556.21
2018-09-24T17:19:04.045Z,98571.55
2018-09-24T17:21:30.504Z,98569.65
2018-09-24T17:23:57.087Z,98566.07
2018-09-24T17:26:23.557Z,98574.75
2018-09-24T17:28:50.213Z,98573.66
2018-09-24T17:31:18.255Z,98578.13
2018-09-24T17:33:44.753Z,98592.17
2018-09-24T17:36:11.330Z,98584.23
2018-09-24T17:38:39.010Z,98583.66
2018-09-24T17:41:05.521Z,98598.14
2018-09-24T17:43:32.034Z,98599.91
2018-09-24T17:45:58.589Z,98604.75
2018-09-24T17:48:25.294Z,98608.81
2018-09-24T17:50:51.798Z,98606.70
2018-09-24T17:53:18.736Z,98619.38
2018-09-24T17:55:45.590Z,98616.80
2018-09-24T17:58:12.141Z,98621.14
2018-09-24T18:00:38.677Z,98621.06
2018-09-24T18:03:05.323Z,98623.95
2018-09-24T18:05:31.877Z,98629.75
2018-09-24T18:07:58.397Z,98629.95
2018-09-24T18:10:24.879Z,98640.17
2018-09-24T18:12:51.495Z,98637.31
2018-09-24T18:15:18.953Z,98637.62
2018-09-24T18:17:45.505Z,98642.53
2018-09-24T18:20:12.160Z,98646.14
2018-09-24T18:22:38.661Z,98652.08
2018-09-24T18:25:05.173Z,98657.97
2018-09-24T18:27:31.695Z,98664.68
2018-09-24T18:29:58.584Z,98662.20
2018-09-24T18:32:25.117Z,98673.22
2018-09-24T18:34:51.620Z,98671.74
2018-09-24T18:37:19.335Z,98677.95
2018-09-24T18:39:45.992Z,98677.19
2018-09-24T18:42:12.689Z,98672.14
2018-09-24T18:44:39.397Z,98682.30
2018-09-24T18:47:05.968Z,98690.23
2018-09-24T18:49:32.521Z,98689.13
2018-09-24T18:51:59.070Z,98680.27
2018-09-24T18:54:25.869Z,98705.61
2018-09-24T18:56:52.381Z,98701.88
2018-09-24T18:59:20.032Z,98697.98
2018-09-24T19:01:46.747Z,98714.55
2018-09-24T19:04:13.575Z,98714.56
2018-09-24T19:06:40.495Z,98721.81
2018-09-24T19:09:07.953Z,98716.72
2018-09-24T19:11:36.243Z,98718.28
2018-09-24T19:14:04.734Z,98721.08
2018-09-24T19:16:33.561Z,98729.89
2018-09-24T19:19:01.271Z,98721.59
2018-09-24T19:21:28.299Z,98726.31
2018-09-24T19:23:56.287Z,98735.93
2018-09-24T19:26:23.112Z,98725.40
2018-09-24T19:31:22.766Z,98736.13
2018-09-24T19:33:49.928Z,98734.20
2018-09-24T19:36:17.296Z,98739.11
2018-09-24T19:38:44.763Z,98745.59
2018-09-24T19:41:11.508Z,98732.09
2018-09-24T19:43:43.132Z,98734.39
2018-09-24T19:46:10.139Z,98748.20
2018-09-24T19:48:37.424Z,98744.64
2018-09-24T19:51:04.775Z,98756.98
2018-09-24T19:53:34.160Z,98756.19
2018-09-24T19:56:02.859Z,98758.95
2018-09-24T20:01:03.003Z,98768.20
2018-09-24T20:03:31.535Z,98771.78
2018-09-24T20:05:58.274Z,98769.84
2018-09-24T20:08:28.475Z,98769.84
2018-09-24T20:10:59.178Z,98771.64
2018-09-24T20:21:02.367Z,98768.55
2018-09-24T20:23:30.188Z,98765.89
2018-09-24T20:26:01.856Z,98771.00
2018-09-24T20:31:05.043Z,98775.46
2018-09-24T20:33:32.945Z,98774.80
2018-09-24T20:36:02.395Z,98779.77
2018-09-24T20:38:30.325Z,98785.36
2018-09-24T20:41:02.229Z,98779.09
2018-09-24T20:43:31.091Z,98773.63
2018-09-24T20:45:58.084Z,98785.67
2018-09-24T20:48:25.315Z,98785.69
2018-09-24T20:50:53.898Z,98779.75
2018-09-24T20:53:23.066Z,98783.54
2018-09-24T20:55:50.815Z,98785.86
2018-09-24T20:58:18.275Z,98791.96
2018-09-24T21:00:47.997Z,98796.08
2018-09-24T21:03:14.963Z,98790.45
2018-09-24T21:05:41.731Z,98793.25
2018-09-24T21:08:08.940Z,98801.45
2018-09-24T21:10:35.997Z,98787.65
2018-09-24T21:13:03.532Z,98793.62
2018-09-24T21:15:30.671Z,98796.23
2018-09-24T21:17:57.841Z,98793.62
2018-09-24T21:20:24.960Z,98792.62
2018-09-24T21:22:52.903Z,98789.98
2018-09-24T21:25:20.125Z,98787.47
2018-09-24T21:27:46.740Z,98794.81
2018-09-24T21:30:13.970Z,98796.19
2018-09-24T21:32:41.865Z,98799.47
2018-09-24T21:35:08.910Z,98801.80
2018-09-24T21:37:35.791Z,98797.70
2018-09-24T21:40:03.384Z,98796.48
2018-09-24T21:42:30.024Z,98804.12
2018-09-24T21:44:57.318Z,98804.23
2018-09-24T21:47:25.130Z,98803.92
2018-09-24T21:49:51.885Z,98803.56
2018-09-24T21:52:21.360Z,98808.48
2018-09-24T21:54:48.743Z,98806.83
2018-09-24T21:57:17.480Z,98801.42
2018-09-24T21:59:44.817Z,98798.33
2018-09-24T22:02:12.162Z,98799.91
2018-09-24T22:04:38.791Z,98801.59
2018-09-24T22:07:05.564Z,98809.97
2018-09-24T22:09:32.564Z,98813.05
2018-09-24T22:12:00.270Z,98804.73
2018-09-24T22:14:31.913Z,98820.39
2018-09-24T22:16:59.011Z,98814.33
2018-09-24T22:19:25.861Z,98804.87
2018-09-24T22:21:53.604Z,98819.23
2018-09-24T22:24:20.318Z,98818.09
2018-09-24T22:26:47.126Z,98823.20
2018-09-24T22:29:13.841Z,98820.57
2018-09-24T22:31:41.139Z,98815.88
2018-09-24T22:34:10.409Z,98817.33
2018-09-24T22:36:37.507Z,98811.07
2018-09-24T22:39:04.940Z,98816.31
2018-09-24T22:41:32.304Z,98820.45
2018-09-24T22:46:31.675Z,98818.69
2018-09-24T22:48:58.554Z,98819.16
2018-09-24T22:51:32.320Z,98811.73
2018-09-24T22:53:59.231Z,98818.89
2018-09-24T22:56:27.007Z,98823.91
2018-09-24T22:58:55.347Z,98817.77
2018-09-24T23:01:22.123Z,98826.23
2018-09-24T23:03:48.903Z,98817.00
2018-09-24T23:06:16.351Z,98815.83
2018-09-24T23:08:44.159Z,98830.86
2018-09-24T23:11:10.874Z,98827.92
2018-09-24T23:13:38.161Z,98829.22
2018-09-24T23:16:05.681Z,98818.77
2018-09-24T23:18:32.613Z,98820.98
2018-09-24T23:20:59.417Z,98829.73
2018-09-24T23:23:26.461Z,98824.33
2018-09-24T23:25:52.921Z,98822.88
2018-09-24T23:28:19.714Z,98833.55
2018-09-24T23:30:46.664Z,98829.30
2018-09-24T23:33:13.302Z,98830.36
2018-09-24T23:35:39.879Z,98840.00
2018-09-24T23:38:07.308Z,98832.94
2018-09-24T23:40:34.860Z,98828.75
2018-09-24T23:43:02.165Z,98828.91
2018-09-24T23:45:29.035Z,98838.56
2018-09-24T23:47:55.856Z,98833.88
2018-09-24T23:50:22.583Z,98837.44
2018-09-24T23:52:49.323Z,98835.39
2018-09-24T23:55:16.021Z,98839.00
2018-09-24T23:57:43.339Z,98832.42
